Time,TemperatureF,DewpointF,PressureIn,WindDirection,WindDirectionDegrees,WindSpeedMPH,WindSpeedGustMPH,Humidity,HourlyPrecipIn,Conditions,Clouds,dailyrainin,SoftwareType,DateUTC
2013-03-23 00:04:00,9.8,-6.8,29.12,North,0,0.0,0.0,46,0.00,,CLR,0.00,VWS V14.01,2013-03-23 05:04:00,
2013-03-23 00:10:00,9.8,-6.8,29.12,North,0,0.0,0.0,46,0.00,,CLR,0.00,VWS V14.01,2013-03-23 05:10:00,
2013-03-23 00:15:00,9.8,-6.8,29.12,North,0,0.0,0.0,46,0.00,,CLR,0.00,VWS V14.01,2013-03-23 05:15:00,
2013-03-23 00:20:00,9.7,-6.9,29.09,North,0,0.0,0.0,46,0.00,,CLR,0.00,VWS V14.01,2013-03-23 05:20:00,
2013-03-23 00:25:00,9.7,-6.9,29.09,North,0,0.0,0.0,46,0.00,,CLR,0.00,VWS V14.01,2013-03-23 05:25:00,
2013-03-23 00:30:00,9.5,-7.1,29.09,North,0,0.0,0.0,46,0.00,,CLR,0.00,VWS V14.01,2013-03-23 05:30:00,
2013-03-23 00:36:00,9.3,-7.3,29.12,North,0,0.0,0.0,46,0.00,,CLR,0.00,VWS V14.01,2013-03-23 05:36:00,
2013-03-23 00:42:00,9.3,-7.3,29.12,North,0,0.0,0.0,46,0.00,,CLR,0.00,VWS V14.01,2013-03-23 05:42:00,
2013-03-23 00:48:00,9.3,-7.3,29.12,North,0,0.0,0.0,46,0.00,,CLR,0.00,VWS V14.01,2013-03-23 05:48:00,
2013-03-23 00:54:00,9.1,-7.4,29.12,North,0,0.0,0.0,46,0.00,,CLR,0.00,VWS V14.01,2013-03-23 05:54:00,
2013-03-23 01:00:00,8.9,-7.6,29.12,North,0,0.0,0.0,46,0.00,,CLR,0.00,VWS V14.01,2013-03-23 06:00:00,
2013-03-23 01:05:00,8.9,-7.6,29.12,North,0,0.0,0.0,46,0.00,,CLR,0.00,VWS V14.01,2013-03-23 06:05:00,
2013-03-23 01:10:00,8.8,-7.8,29.12,North,0,0.0,0.0,46,0.00,,CLR,0.00,VWS V14.01,2013-03-23 06:10:00,
2013-03-23 01:15:00,8.8,-7.8,29.12,North,0,0.0,0.0,46,0.00,,CLR,0.00,VWS V14.01,2013-03-23 06:15:00,
2013-03-23 01:20:00,8.8,-7.8,29.12,North,0,0.0,0.0,46,0.00,,CLR,0.00,VWS V14.01,2013-03-23 06:20:00,
2013-03-23 01:26:00,8.8,-7.8,29.12,North,0,0.0,0.0,46,0.00,,CLR,0.00,VWS V14.01,2013-03-23 06:26:00,
2013-03-23 01:32:00,8.9,-7.6,29.12,North,0,0.0,0.0,46,0.00,,CLR,0.00,VWS V14.01,2013-03-23 06:32:00,
2013-03-23 01:38:00,8.9,-7.6,29.12,North,0,0.0,0.0,46,0.00,,CLR,0.00,VWS V14.01,2013-03-23 06:38:00,
2013-03-23 01:44:00,9.1,-7.4,29.12,North,0,0.0,0.0,46,0.00,,CLR,0.00,VWS V14.01,2013-03-23 06:44:00,
2013-03-23 01:49:00,9.3,-7.3,29.12,North,0,0.0,0.0,46,0.00,,CLR,0.00,VWS V14.01,2013-03-23 06:49:00,
2013-03-23 01:54:00,9.5,-7.1,29.12,North,0,0.0,0.0,46,0.00,,CLR,0.00,VWS V14.01,2013-03-23 06:54:00,
2013-03-23 02:00:00,9.7,-6.9,29.12,North,0,0.0,0.0,46,0.00,,CLR,0.00,VWS V14.01,2013-03-23 07:00:00,
2013-03-23 02:05:00,9.7,-6.9,29.12,North,0,0.0,0.0,46,0.00,,CLR,0.00,VWS V14.01,2013-03-23 07:05:00,
2013-03-23 02:11:00,9.5,-7.1,29.12,North,0,0.0,0.0,46,0.00,,CLR,0.00,VWS V14.01,2013-03-23 07:11:00,
2013-03-23 02:17:00,9.3,-7.3,29.12,North,0,0.0,0.0,46,0.00,,CLR,0.00,VWS V14.01,2013-03-23 07:17:00,
2013-03-23 02:23:00,9.3,-7.3,29.12,North,0,0.0,0.0,46,0.00,,CLR,0.00,VWS V14.01,2013-03-23 07:23:00,
2013-03-23 02:29:00,9.3,-7.3,29.12,North,0,0.0,0.0,46,0.00,,CLR,0.00,VWS V14.01,2013-03-23 07:29:00,
2013-03-23 02:35:00,9.1,-7.4,29.09,North,0,0.0,0.0,46,0.00,,CLR,0.00,VWS V14.01,2013-03-23 07:35:00,
2013-03-23 02:40:00,9.1,-7.4,29.09,North,0,0.0,0.0,46,0.00,,CLR,0.00,VWS V14.01,2013-03-23 07:40:00,
2013-03-23 02:45:00,9.1,-7.4,29.09,North,0,0.0,0.0,46,0.00,,CLR,0.00,VWS V14.01,2013-03-23 07:45:00,
2013-03-23 02:50:00,8.9,-7.6,29.09,North,0,0.0,0.0,46,0.00,,CLR,0.00,VWS V14.01,2013-03-23 07:50:00,
2013-03-23 02:56:00,8.9,-7.6,29.09,North,0,0.0,0.0,46,0.00,,CLR,0.00,VWS V14.01,2013-03-23 07:56:00,
2013-03-23 03:02:00,9.1,-7.4,29.09,North,0,0.0,0.0,46,0.00,,CLR,0.00,VWS V14.01,2013-03-23 08:02:00,
2013-03-23 03:07:00,9.1,-7.4,29.09,North,0,0.0,0.0,46,0.00,,CLR,0.00,VWS V14.01,2013-03-23 08:07:00,
2013-03-23 03:13:00,9.1,-7.4,29.09,North,0,0.0,0.0,46,0.00,,CLR,0.00,VWS V14.01,2013-03-23 08:13:00,
2013-03-23 03:19:00,9.1,-7.4,29.09,North,0,0.0,0.0,46,0.00,,CLR,0.00,VWS V14.01,2013-03-23 08:19:00,
2013-03-23 03:24:00,9.1,-7.4,29.09,North,0,0.0,0.0,46,0.00,,CLR,0.00,VWS V14.01,2013-03-23 08:24:00,
2013-03-23 03:29:00,9.1,-7.4,29.09,North,0,0.0,0.0,46,0.00,,CLR,0.00,VWS V14.01,2013-03-23 08:29:00,
2013-03-23 03:35:00,9.5,-7.1,29.09,North,0,0.0,0.0,46,0.00,,CLR,0.00,VWS V14.01,2013-03-23 08:35:00,
2013-03-23 03:40:00,9.7,-6.9,29.09,North,0,0.0,0.0,46,0.00,,CLR,0.00,VWS V14.01,2013-03-23 08:40:00,
2013-03-23 03:46:00,9.7,-6.9,29.09,North,0,0.0,0.0,46,0.00,,CLR,0.00,VWS V14.01,2013-03-23 08:46:00,
2013-03-23 03:51:00,9.7,-6.9,29.09,North,0,0.0,0.0,46,0.00,,CLR,0.00,VWS V14.01,2013-03-23 08:51:00,
2013-03-23 03:56:00,9.8,-6.8,29.09,North,0,0.0,0.0,46,0.00,,CLR,0.00,VWS V14.01,2013-03-23 08:56:00,
2013-03-23 04:02:00,9.8,-6.8,29.09,North,0,0.0,0.0,46,0.00,,CLR,0.00,VWS V14.01,2013-03-23 09:02:00,
2013-03-23 04:07:00,9.8,-6.8,29.09,North,0,0.0,0.0,46,0.00,,CLR,0.00,VWS V14.01,2013-03-23 09:07:00,
2013-03-23 04:12:00,9.8,-6.8,29.09,North,0,0.0,0.0,46,0.00,,CLR,0.00,VWS V14.01,2013-03-23 09:12:00,
2013-03-23 04:17:00,9.8,-6.8,29.09,North,0,0.0,0.0,46,0.00,,CLR,0.00,VWS V14.01,2013-03-23 09:17:00,
2013-03-23 04:23:00,9.7,-6.9,29.06,North,0,0.0,0.0,46,0.00,,CLR,0.00,VWS V14.01,2013-03-23 09:23:00,
2013-03-23 04:29:00,9.8,-6.8,29.06,North,0,0.0,0.0,46,0.00,,CLR,0.00,VWS V14.01,2013-03-23 09:29:00,
2013-03-23 04:34:00,9.8,-6.8,29.09,North,0,0.0,0.0,46,0.00,,CLR,0.00,VWS V14.01,2013-03-23 09:34:00,
2013-03-23 04:39:00,9.7,-6.9,29.09,North,0,0.0,0.0,46,0.00,,CLR,0.00,VWS V14.01,2013-03-23 09:39:00,
2013-03-23 04:45:00,9.3,-7.3,29.09,North,0,0.0,0.0,46,0.00,,CLR,0.00,VWS V14.01,2013-03-23 09:45:00,
2013-03-23 04:50:00,9.3,-7.3,29.09,North,0,0.0,0.0,46,0.00,,CLR,0.00,VWS V14.01,2013-03-23 09:50:00,
2013-03-23 04:56:00,8.9,-7.6,29.09,North,0,0.0,0.0,46,0.00,,CLR,0.00,VWS V14.01,2013-03-23 09:56:00,
2013-03-23 05:02:00,8.6,-7.9,29.09,North,0,0.0,0.0,46,0.00,,CLR,0.00,VWS V14.01,2013-03-23 10:02:00,
2013-03-23 05:08:00,8.2,-8.3,29.09,North,0,0.0,0.0,46,0.00,,CLR,0.00,VWS V14.01,2013-03-23 10:08:00,
2013-03-23 05:14:00,8.0,-8.4,29.09,North,0,0.0,0.0,46,0.00,,CLR,0.00,VWS V14.01,2013-03-23 10:14:00,
2013-03-23 05:20:00,7.7,-8.8,29.12,North,0,0.0,0.0,46,0.00,,CLR,0.00,VWS V14.01,2013-03-23 10:20:00,
2013-03-23 05:27:00,7.5,-8.9,29.12,North,0,0.0,0.0,46,0.00,,CLR,0.00,VWS V14.01,2013-03-23 10:27:00,
2013-03-23 05:33:00,7.3,-9.1,29.12,North,0,0.0,0.0,46,0.00,,CLR,0.00,VWS V14.01,2013-03-23 10:33:00,
2013-03-23 05:39:00,7.3,-9.1,29.12,North,0,0.0,0.0,46,0.00,,CLR,0.00,VWS V14.01,2013-03-23 10:39:00,
2013-03-23 05:45:00,7.1,-9.3,29.12,North,0,0.0,0.0,46,0.00,,CLR,0.00,VWS V14.01,2013-03-23 10:45:00,
2013-03-23 05:51:00,6.8,-9.6,29.15,North,0,0.0,0.0,46,0.00,,CLR,0.00,VWS V14.01,2013-03-23 10:51:00,
2013-03-23 05:56:00,6.6,-9.8,29.15,North,0,0.0,0.0,46,0.00,,CLR,0.00,VWS V14.01,2013-03-23 10:56:00,
2013-03-23 06:01:00,6.4,-9.9,29.15,North,0,0.0,0.0,46,0.00,,CLR,0.00,VWS V14.01,2013-03-23 11:01:00,
2013-03-23 06:06:00,6.4,-9.9,29.15,North,0,0.0,0.0,46,0.00,,CLR,0.00,VWS V14.01,2013-03-23 11:06:00,
2013-03-23 06:12:00,6.4,-9.9,29.15,North,0,0.0,0.0,46,0.00,,CLR,0.00,VWS V14.01,2013-03-23 11:12:00,
2013-03-23 06:17:00,6.4,-9.9,29.15,North,0,0.0,0.0,46,0.00,,CLR,0.00,VWS V14.01,2013-03-23 11:17:00,
2013-03-23 06:23:00,6.2,-10.1,29.15,North,0,0.0,0.0,46,0.00,,CLR,0.00,VWS V14.01,2013-03-23 11:23:00,
2013-03-23 06:28:00,5.9,-10.4,29.15,North,0,0.0,0.0,46,0.00,,CLR,0.00,VWS V14.01,2013-03-23 11:28:00,
2013-03-23 06:33:00,5.7,-10.6,29.15,North,0,0.0,0.0,46,0.00,,CLR,0.00,VWS V14.01,2013-03-23 11:33:00,
2013-03-23 06:38:00,5.5,-10.8,29.15,North,0,0.0,0.0,46,0.00,,CLR,0.00,VWS V14.01,2013-03-23 11:38:00,
2013-03-23 06:43:00,5.3,-10.9,29.15,North,0,0.0,0.0,46,0.00,,CLR,0.00,VWS V14.01,2013-03-23 11:43:00,
2013-03-23 06:49:00,5.0,-11.3,29.15,North,0,0.0,0.0,46,0.00,,CLR,0.00,VWS V14.01,2013-03-23 11:49:00,
2013-03-23 06:54:00,5.0,-11.3,29.15,North,0,0.0,0.0,46,0.00,,CLR,0.00,VWS V14.01,2013-03-23 11:54:00,
2013-03-23 06:59:00,4.8,-11.4,29.15,North,0,0.0,0.0,46,0.00,,CLR,0.00,VWS V14.01,2013-03-23 11:59:00,
2013-03-23 07:04:00,4.4,-11.8,29.15,North,0,0.0,0.0,46,0.00,,CLR,0.00,VWS V14.01,2013-03-23 12:04:00,
2013-03-23 07:09:00,4.3,-11.9,29.15,North,0,0.0,0.0,46,0.00,,CLR,0.00,VWS V14.01,2013-03-23 12:09:00,
2013-03-23 07:15:00,4.1,-12.1,29.15,North,0,0.0,0.0,46,0.00,,CLR,0.00,VWS V14.01,2013-03-23 12:15:00,
2013-03-23 07:21:00,4.1,-12.1,29.15,North,0,0.0,0.0,46,0.00,,CLR,0.00,VWS V14.01,2013-03-23 12:21:00,
2013-03-23 07:26:00,4.1,-12.1,29.15,North,0,0.0,0.0,46,0.00,,CLR,0.00,VWS V14.01,2013-03-23 12:26:00,
2013-03-23 07:31:00,3.9,-12.3,29.15,North,0,0.0,0.0,46,0.00,,CLR,0.00,VWS V14.01,2013-03-23 12:31:00,
2013-03-23 07:36:00,4.3,-11.9,29.15,North,0,0.0,0.0,46,0.00,,CLR,0.00,VWS V14.01,2013-03-23 12:36:00,
2013-03-23 07:42:00,4.8,-11.4,29.15,North,0,0.0,0.0,46,0.00,,CLR,0.00,VWS V14.01,2013-03-23 12:42:00,
2013-03-23 07:48:00,5.2,-11.1,29.15,North,0,0.0,0.0,46,0.00,,CLR,0.00,VWS V14.01,2013-03-23 12:48:00,
2013-03-23 07:54:00,5.7,-10.6,29.15,North,0,0.0,0.0,46,0.00,,CLR,0.00,VWS V14.01,2013-03-23 12:54:00,
2013-03-23 07:59:00,6.1,-10.3,29.15,North,0,0.0,0.0,46,0.00,,CLR,0.00,VWS V14.01,2013-03-23 12:59:00,
2013-03-23 08:05:00,6.4,-9.9,29.15,North,0,0.0,0.0,46,0.00,,CLR,0.00,VWS V14.01,2013-03-23 13:05:00,
2013-03-23 08:11:00,6.8,-9.6,29.15,North,0,0.0,0.0,46,0.00,,CLR,0.00,VWS V14.01,2013-03-23 13:11:00,
2013-03-23 08:16:00,7.1,-9.3,29.15,North,0,0.0,0.0,46,0.00,,CLR,0.00,VWS V14.01,2013-03-23 13:16:00,
2013-03-23 08:21:00,7.5,-8.9,29.15,North,0,0.0,0.0,46,0.00,,CLR,0.00,VWS V14.01,2013-03-23 13:21:00,
2013-03-23 08:27:00,7.9,-8.6,29.15,North,0,0.0,0.0,46,0.00,,CLR,0.00,VWS V14.01,2013-03-23 13:27:00,
2013-03-23 08:32:00,8.2,-8.3,29.15,North,0,0.0,0.0,46,0.00,,CLR,0.00,VWS V14.01,2013-03-23 13:32:00,
2013-03-23 08:38:00,8.9,-7.6,29.18,North,0,0.0,0.0,46,0.00,,CLR,0.00,VWS V14.01,2013-03-23 13:38:00,
2013-03-23 08:44:00,9.8,-6.8,29.18,North,0,0.0,0.0,46,0.00,,CLR,0.00,VWS V14.01,2013-03-23 13:44:00,
2013-03-23 08:50:00,11.3,-5.5,29.15,North,0,0.0,0.0,46,0.00,,CLR,0.00,VWS V14.01,2013-03-23 13:50:00,
2013-03-23 08:55:00,14.0,3.7,29.15,North,0,0.0,0.0,63,0.00,,CLR,0.00,VWS V14.01,2013-03-23 13:55:00,
2013-03-23 09:00:00,17.9,8.2,29.15,North,0,0.0,0.0,65,0.00,,CLR,0.00,VWS V14.01,2013-03-23 14:00:00,
2013-03-23 09:05:00,19.9,9.7,29.15,North,0,0.0,0.0,64,0.00,,CLR,0.00,VWS V14.01,2013-03-23 14:05:00,
2013-03-23 09:10:00,20.8,9.9,29.15,North,0,0.0,0.0,62,0.00,,CLR,0.00,VWS V14.01,2013-03-23 14:10:00,
2013-03-23 09:17:00,20.6,7.8,29.15,North,0,0.0,0.0,57,0.00,,CLR,0.00,VWS V14.01,2013-03-23 14:17:00,
2013-03-23 09:23:00,21.4,7.7,29.15,North,0,0.0,0.0,55,0.00,,CLR,0.00,VWS V14.01,2013-03-23 14:23:00,
2013-03-23 09:29:00,23.9,9.2,29.15,North,0,0.0,0.0,53,0.00,,CLR,0.00,VWS V14.01,2013-03-23 14:29:00,
2013-03-23 09:34:00,25.3,7.4,29.15,North,0,0.0,0.0,46,0.00,,CLR,0.00,VWS V14.01,2013-03-23 14:34:00,
2013-03-23 09:40:00,25.9,7.0,29.15,North,0,0.0,0.0,44,0.00,,CLR,0.00,VWS V14.01,2013-03-23 14:40:00,
2013-03-23 09:45:00,26.6,7.1,29.15,North,0,0.0,0.0,43,0.00,,CLR,0.00,VWS V14.01,2013-03-23 14:45:00,
2013-03-23 09:50:00,27.1,7.1,29.18,North,0,0.0,0.0,42,0.00,,CLR,0.00,VWS V14.01,2013-03-23 14:50:00,
2013-03-23 09:56:00,27.3,6.7,29.18,North,0,0.0,0.0,41,0.00,,CLR,0.00,VWS V14.01,2013-03-23 14:56:00,
2013-03-23 10:01:00,28.2,7.5,29.18,North,0,0.0,0.0,41,0.00,,CLR,0.00,VWS V14.01,2013-03-23 15:01:00,
2013-03-23 10:07:00,28.7,8.0,29.15,North,0,0.0,0.0,41,0.00,,CLR,0.00,VWS V14.01,2013-03-23 15:07:00,
2013-03-23 10:13:00,29.3,8.0,29.15,North,0,0.0,0.0,40,0.00,,CLR,0.00,VWS V14.01,2013-03-23 15:13:00,
2013-03-23 10:19:00,29.5,8.1,29.15,North,0,0.0,0.0,40,0.00,,CLR,0.00,VWS V14.01,2013-03-23 15:19:00,
2013-03-23 10:25:00,30.2,8.8,29.15,North,0,0.0,0.0,40,0.00,,CLR,0.00,VWS V14.01,2013-03-23 15:25:00,
2013-03-23 10:30:00,30.9,8.9,29.15,North,0,0.0,0.0,39,0.00,,CLR,0.00,VWS V14.01,2013-03-23 15:30:00,
2013-03-23 10:35:00,32.0,9.8,29.15,North,0,0.0,0.0,39,0.00,,CLR,0.00,VWS V14.01,2013-03-23 15:35:00,
2013-03-23 10:41:00,32.5,9.1,29.15,North,0,0.0,0.0,37,0.00,,CLR,0.00,VWS V14.01,2013-03-23 15:41:00,
2013-03-23 10:46:00,32.5,9.1,29.15,North,0,0.0,0.0,37,0.00,,CLR,0.00,VWS V14.01,2013-03-23 15:46:00,
2013-03-23 10:51:00,32.9,8.9,29.15,North,0,0.0,0.0,36,0.00,,CLR,0.00,VWS V14.01,2013-03-23 15:51:00,
2013-03-23 10:57:00,33.6,9.5,29.15,North,0,0.0,0.0,36,0.00,,CLR,0.00,VWS V14.01,2013-03-23 15:57:00,
2013-03-23 11:03:00,34.3,9.5,29.15,North,0,0.0,0.0,35,0.00,,CLR,0.00,VWS V14.01,2013-03-23 16:03:00,
2013-03-23 11:08:00,34.5,9.0,29.15,North,0,0.0,0.0,34,0.00,,CLR,0.00,VWS V14.01,2013-03-23 16:08:00,
2013-03-23 11:13:00,34.5,9.0,29.15,North,0,0.0,0.0,34,0.00,,CLR,0.00,VWS V14.01,2013-03-23 16:13:00,
2013-03-23 11:19:00,35.2,9.0,29.18,North,0,0.0,0.0,33,0.00,,CLR,0.00,VWS V14.01,2013-03-23 16:19:00,
2013-03-23 11:24:00,35.4,9.2,29.18,North,0,0.0,0.0,33,0.00,,CLR,0.00,VWS V14.01,2013-03-23 16:24:00,
2013-03-23 11:29:00,35.0,8.9,29.18,North,0,0.0,0.0,33,0.00,,CLR,0.00,VWS V14.01,2013-03-23 16:29:00,
2013-03-23 11:34:00,35.2,9.0,29.15,North,0,0.0,0.0,33,0.00,,CLR,0.00,VWS V14.01,2013-03-23 16:34:00,
2013-03-23 11:39:00,34.9,8.7,29.15,North,0,0.0,0.0,33,0.00,,CLR,0.00,VWS V14.01,2013-03-23 16:39:00,
2013-03-23 11:44:00,35.4,9.2,29.15,North,0,0.0,0.0,33,0.00,,CLR,0.00,VWS V14.01,2013-03-23 16:44:00,
2013-03-23 11:49:00,35.8,9.5,29.15,North,0,0.0,0.0,33,0.00,,CLR,0.00,VWS V14.01,2013-03-23 16:49:00,
2013-03-23 11:54:00,36.7,9.6,29.15,North,0,0.0,0.0,32,0.00,,CLR,0.00,VWS V14.01,2013-03-23 16:54:00,
2013-03-23 12:00:00,38.5,11.2,29.15,North,0,0.0,0.0,32,0.00,,CLR,0.00,VWS V14.01,2013-03-23 17:00:00,
2013-03-23 12:05:00,39.0,10.9,29.15,North,0,0.0,0.0,31,0.00,,CLR,0.00,VWS V14.01,2013-03-23 17:05:00,
2013-03-23 12:10:00,37.2,9.4,29.15,North,0,0.0,0.0,31,0.00,,CLR,0.00,VWS V14.01,2013-03-23 17:10:00,
2013-03-23 12:16:00,36.7,8.9,29.15,North,0,0.0,0.0,31,0.00,,CLR,0.00,VWS V14.01,2013-03-23 17:16:00,
2013-03-23 12:21:00,37.6,9.7,29.15,North,0,0.0,0.0,31,0.00,,CLR,0.00,VWS V14.01,2013-03-23 17:21:00,
2013-03-23 12:26:00,37.9,10.0,29.15,North,0,0.0,0.0,31,0.00,,CLR,0.00,VWS V14.01,2013-03-23 17:26:00,
2013-03-23 12:31:00,37.7,9.8,29.15,North,0,0.0,0.0,31,0.00,,CLR,0.00,VWS V14.01,2013-03-23 17:31:00,
2013-03-23 12:36:00,38.5,9.7,29.15,North,0,0.0,0.0,30,0.00,,CLR,0.00,VWS V14.01,2013-03-23 17:36:00,
2013-03-23 12:42:00,38.5,9.7,29.15,North,0,0.0,0.0,30,0.00,,CLR,0.00,VWS V14.01,2013-03-23 17:42:00,
2013-03-23 12:47:00,38.8,10.1,29.15,North,0,0.0,0.0,30,0.00,,CLR,0.00,VWS V14.01,2013-03-23 17:47:00,
2013-03-23 12:52:00,38.1,9.4,29.15,North,0,0.0,0.0,30,0.00,,CLR,0.00,VWS V14.01,2013-03-23 17:52:00,
2013-03-23 12:58:00,38.6,9.9,29.15,North,0,0.0,0.0,30,0.00,,CLR,0.00,VWS V14.01,2013-03-23 17:58:00,
2013-03-23 13:03:00,39.0,10.2,29.15,North,0,0.0,0.0,30,0.00,,CLR,0.00,VWS V14.01,2013-03-23 18:03:00,
2013-03-23 13:09:00,38.6,9.9,29.15,North,0,0.0,0.0,30,0.00,,CLR,0.00,VWS V14.01,2013-03-23 18:09:00,
2013-03-23 13:14:00,39.7,10.8,29.15,North,0,0.0,0.0,30,0.00,,CLR,0.00,VWS V14.01,2013-03-23 18:14:00,
2013-03-23 13:19:00,41.2,11.3,29.15,North,0,0.0,0.0,29,0.00,,CLR,0.00,VWS V14.01,2013-03-23 18:19:00,
2013-03-23 13:24:00,40.6,10.9,29.15,North,0,0.0,0.0,29,0.00,,CLR,0.00,VWS V14.01,2013-03-23 18:24:00,
2013-03-23 13:30:00,41.5,11.6,29.15,North,0,0.0,0.0,29,0.00,,CLR,0.00,VWS V14.01,2013-03-23 18:30:00,
2013-03-23 13:35:00,40.4,10.7,29.15,North,0,0.0,0.0,29,0.00,,CLR,0.00,VWS V14.01,2013-03-23 18:35:00,
2013-03-23 13:40:00,40.6,10.9,29.15,North,0,0.0,0.0,29,0.00,,CLR,0.00,VWS V14.01,2013-03-23 18:40:00,
2013-03-23 13:45:00,41.3,11.5,29.15,North,0,0.0,0.0,29,0.00,,CLR,0.00,VWS V14.01,2013-03-23 18:45:00,
2013-03-23 13:51:00,41.5,11.6,29.15,North,0,0.0,0.0,29,0.00,,CLR,0.00,VWS V14.01,2013-03-23 18:51:00,
2013-03-23 13:57:00,41.2,11.3,29.15,North,0,0.0,0.0,29,0.00,,CLR,0.00,VWS V14.01,2013-03-23 18:57:00,
2013-03-23 14:03:00,41.5,11.6,29.15,North,0,0.0,0.0,29,0.00,,CLR,0.00,VWS V14.01,2013-03-23 19:03:00,
2013-03-23 14:09:00,41.7,11.8,29.15,North,0,0.0,0.0,29,0.00,,CLR,0.00,VWS V14.01,2013-03-23 19:09:00,
2013-03-23 14:15:00,41.5,11.6,29.15,North,0,0.0,0.0,29,0.00,,CLR,0.00,VWS V14.01,2013-03-23 19:15:00,
2013-03-23 14:20:00,41.3,11.5,29.15,North,0,0.0,0.0,29,0.00,,CLR,0.00,VWS V14.01,2013-03-23 19:20:00,
2013-03-23 14:25:00,41.3,11.5,29.15,North,0,0.0,0.0,29,0.00,,CLR,0.00,VWS V14.01,2013-03-23 19:25:00,
2013-03-23 14:30:00,42.8,11.9,29.15,North,0,0.0,0.0,28,0.00,,CLR,0.00,VWS V14.01,2013-03-23 19:30:00,
2013-03-23 14:36:00,44.0,13.0,29.12,North,0,0.0,0.0,28,0.00,,CLR,0.00,VWS V14.01,2013-03-23 19:36:00,
2013-03-23 14:42:00,43.0,12.1,29.12,North,0,0.0,0.0,28,0.00,,CLR,0.00,VWS V14.01,2013-03-23 19:42:00,
2013-03-23 14:47:00,43.5,12.6,29.12,North,0,0.0,0.0,28,0.00,,CLR,0.00,VWS V14.01,2013-03-23 19:47:00,
2013-03-23 14:52:00,43.5,12.6,29.12,North,0,0.0,0.0,28,0.00,,CLR,0.00,VWS V14.01,2013-03-23 19:52:00,
2013-03-23 14:57:00,43.3,12.4,29.12,North,0,0.0,0.0,28,0.00,,CLR,0.00,VWS V14.01,2013-03-23 19:57:00,
2013-03-23 15:03:00,42.1,11.3,29.12,North,0,0.0,0.0,28,0.00,,CLR,0.00,VWS V14.01,2013-03-23 20:03:00,
2013-03-23 15:08:00,40.8,10.2,29.12,North,0,0.0,0.0,28,0.00,,CLR,0.00,VWS V14.01,2013-03-23 20:08:00,
2013-03-23 15:13:00,41.0,10.4,29.12,North,0,0.0,0.0,28,0.00,,CLR,0.00,VWS V14.01,2013-03-23 20:13:00,
2013-03-23 15:19:00,41.2,10.6,29.12,North,0,0.0,0.0,28,0.00,,CLR,0.00,VWS V14.01,2013-03-23 20:19:00,
2013-03-23 15:24:00,40.6,10.9,29.12,North,0,0.0,0.0,29,0.00,,CLR,0.00,VWS V14.01,2013-03-23 20:24:00,
2013-03-23 15:29:00,40.6,10.9,29.12,North,0,0.0,0.0,29,0.00,,CLR,0.00,VWS V14.01,2013-03-23 20:29:00,
2013-03-23 15:34:00,40.3,10.6,29.12,North,0,0.0,0.0,29,0.00,,CLR,0.00,VWS V14.01,2013-03-23 20:34:00,
2013-03-23 15:39:00,40.4,10.7,29.12,North,0,0.0,0.0,29,0.00,,CLR,0.00,VWS V14.01,2013-03-23 20:39:00,
2013-03-23 15:45:00,40.1,10.4,29.12,North,0,0.0,0.0,29,0.00,,CLR,0.00,VWS V14.01,2013-03-23 20:45:00,
2013-03-23 15:50:00,40.4,10.7,29.12,North,0,0.0,0.0,29,0.00,,CLR,0.00,VWS V14.01,2013-03-23 20:50:00,
2013-03-23 15:55:00,40.8,11.0,29.12,North,0,0.0,0.0,29,0.00,,CLR,0.00,VWS V14.01,2013-03-23 20:55:00,
2013-03-23 16:00:00,41.0,10.4,29.12,North,0,0.0,0.0,28,0.00,,CLR,0.00,VWS V14.01,2013-03-23 21:00:00,
2013-03-23 16:05:00,40.8,10.2,29.12,North,0,0.0,0.0,28,0.00,,CLR,0.00,VWS V14.01,2013-03-23 21:05:00,
2013-03-23 16:11:00,39.7,10.1,29.12,North,0,0.0,0.0,29,0.00,,CLR,0.00,VWS V14.01,2013-03-23 21:11:00,
2013-03-23 16:16:00,39.9,10.2,29.12,North,0,0.0,0.0,29,0.00,,CLR,0.00,VWS V14.01,2013-03-23 21:16:00,
2013-03-23 16:22:00,39.9,10.2,29.12,North,0,0.0,0.0,29,0.00,,CLR,0.00,VWS V14.01,2013-03-23 21:22:00,
2013-03-23 16:27:00,39.7,10.1,29.12,North,0,0.0,0.0,29,0.00,,CLR,0.00,VWS V14.01,2013-03-23 21:27:00,
2013-03-23 16:32:00,39.4,9.8,29.12,North,0,0.0,0.0,29,0.00,,CLR,0.00,VWS V14.01,2013-03-23 21:32:00,
2013-03-23 16:38:00,38.6,9.1,29.09,North,0,0.0,0.0,29,0.00,,CLR,0.00,VWS V14.01,2013-03-23 21:38:00,
2013-03-23 16:43:00,38.6,9.1,29.09,North,0,0.0,0.0,29,0.00,,CLR,0.00,VWS V14.01,2013-03-23 21:43:00,
2013-03-23 16:48:00,38.5,9.0,29.09,North,0,0.0,0.0,29,0.00,,CLR,0.00,VWS V14.01,2013-03-23 21:48:00,
2013-03-23 16:53:00,37.9,9.3,29.09,North,0,0.0,0.0,30,0.00,,CLR,0.00,VWS V14.01,2013-03-23 21:53:00,
2013-03-23 16:58:00,37.6,8.9,29.09,North,0,0.0,0.0,30,0.00,,CLR,0.00,VWS V14.01,2013-03-23 21:58:00,
2013-03-23 17:04:00,37.2,8.6,29.09,North,0,0.0,0.0,30,0.00,,CLR,0.00,VWS V14.01,2013-03-23 22:04:00,
2013-03-23 17:09:00,36.8,8.3,29.09,North,0,0.0,0.0,30,0.00,,CLR,0.00,VWS V14.01,2013-03-23 22:09:00,
2013-03-23 17:14:00,36.7,8.2,29.09,North,0,0.0,0.0,30,0.00,,CLR,0.00,VWS V14.01,2013-03-23 22:14:00,
2013-03-23 17:20:00,36.5,8.7,29.09,North,0,0.0,0.0,31,0.00,,CLR,0.00,VWS V14.01,2013-03-23 22:20:00,
2013-03-23 17:25:00,36.3,8.6,29.09,North,0,0.0,0.0,31,0.00,,CLR,0.00,VWS V14.01,2013-03-23 22:25:00,
2013-03-23 17:30:00,35.8,8.1,29.09,North,0,0.0,0.0,31,0.00,,CLR,0.00,VWS V14.01,2013-03-23 22:30:00,
2013-03-23 17:35:00,35.6,7.9,29.09,North,0,0.0,0.0,31,0.00,,CLR,0.00,VWS V14.01,2013-03-23 22:35:00,
2013-03-23 17:41:00,35.6,7.9,29.09,North,0,0.0,0.0,31,0.00,,CLR,0.00,VWS V14.01,2013-03-23 22:41:00,
2013-03-23 17:46:00,35.4,7.8,29.09,North,0,0.0,0.0,31,0.00,,CLR,0.00,VWS V14.01,2013-03-23 22:46:00,
2013-03-23 17:51:00,35.4,7.8,29.09,North,0,0.0,0.0,31,0.00,,CLR,0.00,VWS V14.01,2013-03-23 22:51:00,
2013-03-23 17:56:00,35.6,7.9,29.09,North,0,0.0,0.0,31,0.00,,CLR,0.00,VWS V14.01,2013-03-23 22:56:00,
2013-03-23 18:01:00,35.9,8.3,29.09,North,0,0.0,0.0,31,0.00,,CLR,0.00,VWS V14.01,2013-03-23 23:01:00,
2013-03-23 18:07:00,36.1,8.4,29.09,North,0,0.0,0.0,31,0.00,,CLR,0.00,VWS V14.01,2013-03-23 23:07:00,
2013-03-23 18:13:00,35.9,8.3,29.09,North,0,0.0,0.0,31,0.00,,CLR,0.00,VWS V14.01,2013-03-23 23:13:00,
2013-03-23 18:18:00,35.4,7.8,29.09,North,0,0.0,0.0,31,0.00,,CLR,0.00,VWS V14.01,2013-03-23 23:18:00,
2013-03-23 18:23:00,35.0,8.2,29.09,North,0,0.0,0.0,32,0.00,,CLR,0.00,VWS V14.01,2013-03-23 23:23:00,
2013-03-23 18:28:00,34.3,7.5,29.09,North,0,0.0,0.0,32,0.00,,CLR,0.00,VWS V14.01,2013-03-23 23:28:00,
2013-03-23 18:34:00,34.0,7.2,29.12,North,0,0.0,0.0,32,0.00,,CLR,0.00,VWS V14.01,2013-03-23 23:34:00,
2013-03-23 18:39:00,33.8,7.1,29.12,North,0,0.0,0.0,32,0.00,,CLR,0.00,VWS V14.01,2013-03-23 23:39:00,
2013-03-23 18:44:00,33.6,6.9,29.12,North,0,0.0,0.0,32,0.00,,CLR,0.00,VWS V14.01,2013-03-23 23:44:00,
2013-03-23 18:49:00,33.4,6.7,29.12,North,0,0.0,0.0,32,0.00,,CLR,0.00,VWS V14.01,2013-03-23 23:49:00,
2013-03-23 18:55:00,33.1,7.1,29.12,North,0,0.0,0.0,33,0.00,,CLR,0.00,VWS V14.01,2013-03-23 23:55:00,
2013-03-23 19:00:00,32.7,6.8,29.12,North,0,0.0,0.0,33,0.00,,CLR,0.00,VWS V14.01,2013-03-24 00:00:00,
2013-03-23 19:05:00,32.3,6.5,29.12,North,0,0.0,0.0,33,0.00,,CLR,0.00,VWS V14.01,2013-03-24 00:05:00,
2013-03-23 19:11:00,32.0,6.2,29.12,North,0,0.0,0.0,33,0.00,,CLR,0.00,VWS V14.01,2013-03-24 00:11:00,
2013-03-23 19:16:00,31.4,5.7,29.12,North,0,0.0,0.0,33,0.00,,CLR,0.00,VWS V14.01,2013-03-24 00:16:00,
2013-03-23 19:22:00,30.7,5.0,29.12,North,0,0.0,0.0,33,0.00,,CLR,0.00,VWS V14.01,2013-03-24 00:22:00,
2013-03-23 19:27:00,30.0,4.4,29.12,North,0,0.0,0.0,33,0.00,,CLR,0.00,VWS V14.01,2013-03-24 00:27:00,
2013-03-23 19:32:00,28.9,3.4,29.12,North,0,0.0,0.0,33,0.00,,CLR,0.00,VWS V14.01,2013-03-24 00:32:00,
2013-03-23 19:38:00,28.2,3.5,29.12,North,0,0.0,0.0,34,0.00,,CLR,0.00,VWS V14.01,2013-03-24 00:38:00,
2013-03-23 19:43:00,27.5,2.8,29.12,North,0,0.0,0.0,34,0.00,,CLR,0.00,VWS V14.01,2013-03-24 00:43:00,
2013-03-23 19:48:00,26.9,3.0,29.12,North,0,0.0,0.0,35,0.00,,CLR,0.00,VWS V14.01,2013-03-24 00:48:00,
2013-03-23 19:53:00,26.4,2.5,29.12,North,0,0.0,0.0,35,0.00,,CLR,0.00,VWS V14.01,2013-03-24 00:53:00,
2013-03-23 19:58:00,25.9,2.0,29.12,North,0,0.0,0.0,35,0.00,,CLR,0.00,VWS V14.01,2013-03-24 00:58:00,
2013-03-23 20:04:00,25.5,2.3,29.12,North,0,0.0,0.0,36,0.00,,CLR,0.00,VWS V14.01,2013-03-24 01:04:00,
2013-03-23 20:09:00,25.1,2.5,29.12,North,0,0.0,0.0,37,0.00,,CLR,0.00,VWS V14.01,2013-03-24 01:09:00,
2013-03-23 20:14:00,24.8,2.2,29.12,North,0,0.0,0.0,37,0.00,,CLR,0.00,VWS V14.01,2013-03-24 01:14:00,
2013-03-23 20:19:00,24.4,2.5,29.12,North,0,0.0,0.0,38,0.00,,CLR,0.00,VWS V14.01,2013-03-24 01:19:00,
2013-03-23 20:25:00,24.1,2.7,29.12,North,0,0.0,0.0,39,0.00,,CLR,0.00,VWS V14.01,2013-03-24 01:25:00,
2013-03-23 20:30:00,24.1,3.8,29.12,North,0,0.0,0.0,41,0.00,,CLR,0.00,VWS V14.01,2013-03-24 01:30:00,
2013-03-23 20:35:00,23.9,3.6,29.12,North,0,0.0,0.0,41,0.00,,CLR,0.00,VWS V14.01,2013-03-24 01:35:00,
2013-03-23 20:40:00,23.5,3.3,29.12,North,0,0.0,0.0,41,0.00,,CLR,0.00,VWS V14.01,2013-03-24 01:40:00,
2013-03-23 20:46:00,23.3,3.7,29.12,North,0,0.0,0.0,42,0.00,,CLR,0.00,VWS V14.01,2013-03-24 01:46:00,
2013-03-23 20:52:00,23.2,3.5,29.12,North,0,0.0,0.0,42,0.00,,CLR,0.00,VWS V14.01,2013-03-24 01:52:00,
2013-03-23 20:57:00,23.0,3.3,29.12,North,0,0.0,0.0,42,0.00,,CLR,0.00,VWS V14.01,2013-03-24 01:57:00,
2013-03-23 21:02:00,22.8,3.7,29.12,North,0,0.0,0.0,43,0.00,,BKN044,0.00,VWS V14.01,2013-03-24 02:02:00,
2013-03-23 21:07:00,22.8,3.7,29.12,North,0,0.0,0.0,43,0.00,,BKN044,0.00,VWS V14.01,2013-03-24 02:07:00,
2013-03-23 21:13:00,22.8,3.7,29.12,North,0,0.0,0.0,43,0.00,,BKN044,0.00,VWS V14.01,2013-03-24 02:13:00,
2013-03-23 21:18:00,22.8,3.7,29.12,North,0,0.0,0.0,43,0.00,,BKN044,0.00,VWS V14.01,2013-03-24 02:18:00,
2013-03-23 21:23:00,23.0,3.8,29.12,North,0,0.0,0.0,43,0.00,,BKN044,0.00,VWS V14.01,2013-03-24 02:23:00,
2013-03-23 21:28:00,23.0,3.8,29.12,North,0,0.0,0.0,43,0.00,,BKN044,0.00,VWS V14.01,2013-03-24 02:28:00,
2013-03-23 21:33:00,23.0,4.3,29.12,North,0,0.0,0.0,44,0.00,,BKN044,0.00,VWS V14.01,2013-03-24 02:33:00,
2013-03-23 21:39:00,23.2,4.5,29.12,North,0,0.0,0.0,44,0.00,,BKN044,0.00,VWS V14.01,2013-03-24 02:39:00,
2013-03-23 21:44:00,23.2,4.5,29.12,North,0,0.0,0.0,44,0.00,,BKN044,0.00,VWS V14.01,2013-03-24 02:44:00,
2013-03-23 21:49:00,23.3,5.2,29.12,North,0,0.0,0.0,45,0.00,,BKN044,0.00,VWS V14.01,2013-03-24 02:49:00,
2013-03-23 21:54:00,23.5,5.3,29.12,North,0,0.0,0.0,45,0.00,,BKN044,0.00,VWS V14.01,2013-03-24 02:54:00,
2013-03-23 22:00:00,23.7,6.0,29.12,North,0,0.0,0.0,46,0.00,,BKN044,0.00,VWS V14.01,2013-03-24 03:00:00,
2013-03-23 22:05:00,23.9,6.1,29.12,North,0,0.0,0.0,46,0.00,,OVC046,0.00,VWS V14.01,2013-03-24 03:05:00,
2013-03-23 22:10:00,24.1,6.3,29.12,North,0,0.0,0.0,46,0.00,,OVC046,0.00,VWS V14.01,2013-03-24 03:10:00,
2013-03-23 22:15:00,24.1,6.8,29.12,North,0,0.0,0.0,47,0.00,,OVC046,0.00,VWS V14.01,2013-03-24 03:15:00,
2013-03-23 22:21:00,24.1,6.8,29.12,North,0,0.0,0.0,47,0.00,,OVC046,0.00,VWS V14.01,2013-03-24 03:21:00,
2013-03-23 22:27:00,24.2,6.9,29.12,North,0,0.0,0.0,47,0.00,,OVC046,0.00,VWS V14.01,2013-03-24 03:27:00,
2013-03-23 22:32:00,24.2,7.4,29.12,North,0,0.0,0.0,48,0.00,,OVC046,0.00,VWS V14.01,2013-03-24 03:32:00,
2013-03-23 22:38:00,24.4,7.6,29.12,North,0,0.0,0.0,48,0.00,,OVC046,0.00,VWS V14.01,2013-03-24 03:38:00,
2013-03-23 22:43:00,24.4,8.0,29.12,North,0,0.0,0.0,49,0.00,,OVC046,0.00,VWS V14.01,2013-03-24 03:43:00,
2013-03-23 22:48:00,24.6,8.2,29.12,North,0,0.0,0.0,49,0.00,,OVC046,0.00,VWS V14.01,2013-03-24 03:48:00,
2013-03-23 22:53:00,24.6,8.2,29.12,North,0,0.0,0.0,49,0.00,,OVC046,0.00,VWS V14.01,2013-03-24 03:53:00,
2013-03-23 22:58:00,24.6,8.2,29.12,North,0,0.0,0.0,49,0.00,,OVC046,0.00,VWS V14.01,2013-03-24 03:58:00,
2013-03-23 23:00:00,24.8,8.4,29.12,North,0,0.0,0.0,49,0.00,,OVC046,0.00,VWS V14.01,2013-03-24 04:00:00,
2013-03-23 23:02:00,24.8,8.4,29.12,North,0,0.0,0.0,49,0.00,,OVC046,0.00,VWS V14.01,2013-03-24 04:02:00,
2013-03-23 23:03:00,24.8,8.4,29.12,North,0,0.0,0.0,49,0.00,,OVC046,0.00,VWS V14.01,2013-03-24 04:03:00,
2013-03-23 23:07:00,25.0,8.5,29.12,North,0,0.0,0.0,49,0.00,,OVC046,0.00,VWS V14.01,2013-03-24 04:07:00,
2013-03-23 23:12:00,25.0,9.0,29.12,North,0,0.0,0.0,50,0.00,,OVC046,0.00,VWS V14.01,2013-03-24 04:12:00,
2013-03-23 23:17:00,25.1,9.1,29.12,North,0,0.0,0.0,50,0.00,,OVC046,0.00,VWS V14.01,2013-03-24 04:17:00,
2013-03-23 23:22:00,25.3,9.3,29.12,North,0,0.0,0.0,50,0.00,,OVC046,0.00,VWS V14.01,2013-03-24 04:22:00,
2013-03-23 23:27:00,25.9,10.2,29.12,North,0,0.0,0.0,51,0.00,,OVC046,0.00,VWS V14.01,2013-03-24 04:27:00,
2013-03-23 23:33:00,26.4,10.7,29.12,North,0,0.0,0.0,51,0.00,,OVC046,0.00,VWS V14.01,2013-03-24 04:33:00,
2013-03-23 23:38:00,26.8,11.1,29.12,North,0,0.0,0.0,51,0.00,,OVC046,0.00,VWS V14.01,2013-03-24 04:38:00,
2013-03-23 23:43:00,27.1,11.4,29.12,North,0,0.0,0.0,51,0.00,,OVC046,0.00,VWS V14.01,2013-03-24 04:43:00,
2013-03-23 23:48:00,27.5,11.7,29.12,North,0,0.0,0.0,51,0.00,,OVC046,0.00,VWS V14.01,2013-03-24 04:48:00,
2013-03-23 23:53:00,27.8,11.6,29.12,North,0,0.0,0.0,50,0.00,,OVC046,0.00,VWS V14.01,2013-03-24 04:53:00,
2013-03-23 23:59:00,28.0,11.3,29.12,North,0,0.0,0.0,49,0.00,,OVC046,0.00,VWS V14.01,2013-03-24 04:59:00,